Time;durP1;ratioP1;P1;durP2;ratioP2;P2;SDS_P1;SDS_P2;PMS_P1;PMS_P2;Temp;Humidity;BMP_temperature;BMP_pressure;BME280_temperature;BME280_humidity;BME280_pressure;Samples;Min_cycle;Max_cycle;Signal;HPM_P1;HPM_P2
2023/08/23 00:00:03;;;;;;;;;2.00;1.00;;;;;25.14;55.41;101255.59;4886665;29;44806;-84
2023/08/23 00:02:29;;;;;;;;;2.33;2.33;;;;;25.14;55.12;101250.16;4886550;29;45176;-83
2023/08/23 00:04:55;;;;;;;;;2.00;2.00;;;;;25.11;55.56;101253.03;4884594;29;47095;-83
2023/08/23 00:07:20;;;;;;;;;2.50;2.50;;;;;24.98;55.50;101227.22;4887661;29;44804;-83
2023/08/23 00:09:46;;;;;;;;;2.00;2.00;;;;;25.06;55.07;101246.84;4886864;29;45475;-83
2023/08/23 00:12:11;;;;;;;;;2.00;1.75;;;;;24.99;55.07;101242.59;4888444;29;44832;-83
2023/08/23 00:14:41;;;;;;;;;2.75;2.75;;;;;25.12;54.92;101244.78;4885587;29;47781;-83
2023/08/23 00:17:06;;;;;;;;;1.00;1.00;;;;;24.94;54.96;101234.59;4888106;29;45396;-83
2023/08/23 00:19:32;;;;;;;;;2.00;2.00;;;;;25.01;55.05;101240.72;4871790;29;44688;-84
2023/08/23 00:21:57;;;;;;;;;1.50;1.50;;;;;25.03;54.90;101238.81;4888440;29;44779;-83
2023/08/23 00:24:23;;;;;;;;;2.50;2.00;;;;;25.01;55.10;101235.28;4871020;29;47324;-82
2023/08/23 00:26:53;;;;;;;;;1.25;1.25;;;;;25.02;55.11;101226.13;4886716;29;44831;-83
2023/08/23 00:29:18;;;;;;;;;2.00;2.00;;;;;25.01;54.55;101227.09;4872461;29;44834;-83
2023/08/23 00:31:44;;;;;;;;;2.00;2.00;;;;;24.97;55.09;101228.16;4889068;29;44903;-83
2023/08/23 00:34:09;;;;;;;;;1.00;1.00;;;;;24.79;55.09;101203.44;4887490;29;47061;-83
2023/08/23 00:36:35;;;;;;;;;2.50;1.50;;;;;24.87;54.94;101214.91;4870309;29;44889;-83
2023/08/23 00:39:00;;;;;;;;;0.75;0.75;;;;;24.90;54.94;101217.50;4888965;29;44811;-83
2023/08/23 00:41:25;;;;;;;;;0.75;0.75;;;;;24.89;54.57;101214.84;4889823;29;45392;-83
2023/08/23 00:43:52;;;;;;;;;0.50;0.50;;;;;24.91;54.64;101202.94;4889399;29;45313;-84
2023/08/23 00:46:25;;;;;;;;;1.25;1.25;;;;;24.87;54.63;101200.41;4886879;29;45295;-84
2023/08/23 00:49:00;;;;;;;;;1.00;1.00;;;;;24.90;54.62;101190.28;4872585;29;45384;-82
2023/08/23 00:51:26;;;;;;;;;1.00;1.00;;;;;24.80;54.56;101198.88;4888184;29;44904;-82
2023/08/23 00:53:51;;;;;;;;;1.00;1.00;;;;;24.80;54.35;101193.41;4870245;29;46661;-84
2023/08/23 00:59:39;;;;;;;;;1.00;1.00;;;;;24.75;54.23;101196.31;4887667;29;45487;-83
2023/08/23 01:02:05;;;;;;;;;1.25;0.50;;;;;24.73;54.39;101190.06;4871181;29;44961;-83
2023/08/23 01:04:30;;;;;;;;;1.00;1.00;;;;;24.67;54.14;101187.56;4885269;29;44991;-83
2023/08/23 01:07:14;;;;;;;;;1.00;1.00;;;;;24.79;54.29;101183.50;4884273;29;45455;-83
2023/08/23 01:09:54;;;;;;;;;1.00;1.00;;;;;24.77;54.52;101191.72;4883932;29;44880;-83
2023/08/23 01:12:40;;;;;;;;;1.00;1.00;;;;;24.75;54.45;101193.59;4885897;29;44769;-83
2023/08/23 01:15:09;;;;;;;;;2.00;2.00;;;;;24.71;54.31;101191.94;4886269;29;45325;-83
2023/08/23 01:17:41;;;;;;;;;0.00;0.00;;;;;24.62;54.10;101186.84;4885835;29;44937;-82
2023/08/23 01:20:12;;;;;;;;;2.00;0.00;;;;;24.75;54.17;101196.31;4870155;29;44779;-83
2023/08/23 01:23:33;;;;;;;;;3.00;1.00;;;;;24.77;54.08;101193.56;4872908;29;45417;-83
2023/08/23 01:26:00;;;;;;;;;1.25;1.25;;;;;24.59;53.86;101181.53;4873000;29;47076;-83
2023/08/23 01:28:26;;;;;;;;;1.75;0.50;;;;;24.59;53.84;101189.69;4889703;29;44820;-85
2023/08/23 01:30:58;;;;;;;;;1.25;1.00;;;;;24.62;54.07;101195.00;4873719;29;45227;-83
2023/08/23 01:33:33;;;;;;;;;0.00;0.00;;;;;24.62;53.73;101197.72;4889733;29;45576;-84
2023/08/23 01:36:10;;;;;;;;;1.00;1.00;;;;;24.62;54.16;101190.47;4874031;29;47369;-84
2023/08/23 01:38:38;;;;;;;;;1.00;1.00;;;;;24.52;54.29;101189.91;4888619;29;45365;-82
2023/08/23 01:41:04;;;;;;;;;1.00;1.00;;;;;24.54;53.90;101188.03;4889223;29;45416;-84
2023/08/23 01:43:30;;;;;;;;;1.00;1.00;;;;;24.54;54.08;101193.47;4888274;29;44834;-82
2023/08/23 01:45:55;;;;;;;;;0.50;0.50;;;;;24.56;54.52;101196.09;4889281;29;45027;-82
2023/08/23 01:48:21;;;;;;;;;1.00;1.00;;;;;24.55;54.84;101183.47;4887976;29;45386;-83
2023/08/23 01:50:46;;;;;;;;;1.00;1.00;;;;;24.55;54.75;101186.19;4889351;29;45405;-82
2023/08/23 01:53:12;;;;;;;;;0.50;0.00;;;;;24.54;54.95;101182.59;4888551;29;44880;-82
2023/08/23 01:55:38;;;;;;;;;1.50;1.00;;;;;24.57;55.06;101180.69;4889390;29;45499;-83
2023/08/23 01:58:04;;;;;;;;;1.00;1.00;;;;;24.54;55.19;101176.25;4888228;29;45308;-83
2023/08/23 02:00:29;;;;;;;;;1.00;1.00;;;;;24.52;55.17;101173.59;4889255;29;45469;-83
2023/08/23 02:02:56;;;;;;;;;1.00;1.00;;;;;24.48;55.16;101166.47;4890769;28;45431;-82
2023/08/23 02:05:21;;;;;;;;;2.00;2.00;;;;;24.47;55.35;101169.25;4890080;29;46829;-83
2023/08/23 02:07:48;;;;;;;;;2.00;2.00;;;;;24.57;55.40;101175.25;4889987;29;45351;-82
2023/08/23 02:10:13;;;;;;;;;0.00;0.00;;;;;24.40;55.82;101160.44;4889262;29;45145;-83
2023/08/23 02:12:40;;;;;;;;;0.25;0.25;;;;;24.47;55.65;101164.69;4888047;29;44829;-83
2023/08/23 02:15:09;;;;;;;;;1.50;1.50;;;;;24.51;55.79;101160.94;4871650;29;46933;-83
2023/08/23 02:17:34;;;;;;;;;0.25;0.00;;;;;24.40;55.75;101160.44;4871573;29;45445;-84
2023/08/23 02:19:59;;;;;;;;;0.00;0.00;;;;;24.40;55.89;101151.38;4888867;29;45279;-83
2023/08/23 02:22:25;;;;;;;;;2.50;1.25;;;;;24.39;55.48;101155.03;4889416;29;45466;-83
2023/08/23 02:24:50;;;;;;;;;1.00;1.00;;;;;24.36;55.81;101162.38;4889250;29;45468;-83
2023/08/23 02:27:15;;;;;;;;;0.50;0.50;;;;;24.33;55.47;101161.59;4888020;29;45183;-82
2023/08/23 02:32:21;;;;;;;;;2.25;0.25;;;;;24.33;54.99;101156.16;5718659;23;46959;-82
2023/08/23 02:34:46;;;;;;;;;0.00;0.00;;;;;24.20;55.48;101143.94;4907582;29;45486;-83
2023/08/23 02:37:12;;;;;;;;;0.00;0.00;;;;;24.26;55.33;101154.59;4891999;29;44876;-83
2023/08/23 02:39:37;;;;;;;;;0.75;0.75;;;;;24.24;55.27;101168.25;4892852;29;45321;-83
2023/08/23 02:42:03;;;;;;;;;1.00;1.00;;;;;24.21;55.38;101168.34;4906974;29;45432;-83
2023/08/23 02:44:30;;;;;;;;;1.00;0.00;;;;;24.26;55.82;101162.75;4905706;29;45425;-83
2023/08/23 02:46:58;;;;;;;;;0.50;0.50;;;;;24.28;55.62;101155.41;4890588;29;44864;-82
2023/08/23 02:49:23;;;;;;;;;0.25;0.00;;;;;24.14;55.79;101156.81;4889701;29;44993;-83
2023/08/23 02:51:49;;;;;;;;;1.75;1.75;;;;;24.19;56.42;101161.19;4889550;29;44878;-83
2023/08/23 02:54:15;;;;;;;;;0.00;0.00;;;;;24.15;56.76;101164.00;4905840;29;45332;-83
2023/08/23 02:56:41;;;;;;;;;0.75;0.75;;;;;24.16;56.69;101164.94;4887812;29;44861;-83
2023/08/23 02:59:10;;;;;;;;;1.00;1.00;;;;;24.12;56.86;101165.97;4905100;29;45447;-83
2023/08/23 03:01:35;;;;;;;;;0.00;0.00;;;;;24.02;57.33;101159.97;4888763;29;45370;-83
2023/08/23 03:04:00;;;;;;;;;1.00;1.00;;;;;24.01;57.38;101160.91;4887288;29;47601;-83
2023/08/23 03:06:26;;;;;;;;;0.00;0.00;;;;;24.00;57.47;101159.16;4904461;29;45449;-83
2023/08/23 03:08:51;;;;;;;;;1.00;0.00;;;;;23.98;57.21;101155.59;4905112;29;45883;-82
2023/08/23 03:11:17;;;;;;;;;0.00;0.00;;;;;23.94;57.87;101153.94;4886924;29;44918;-84
2023/08/23 03:13:42;;;;;;;;;1.00;1.00;;;;;23.92;57.94;101155.81;4906316;29;45516;-82
2023/08/23 03:16:07;;;;;;;;;1.00;1.00;;;;;23.90;57.89;101172.16;4906539;29;44811;-83
2023/08/23 03:18:33;;;;;;;;;1.00;1.00;;;;;23.86;58.03;101162.34;4887799;29;44811;-83
2023/08/23 03:20:58;;;;;;;;;1.00;1.00;;;;;23.82;57.89;101159.78;4906246;29;45439;-84
2023/08/23 03:23:24;;;;;;;;;0.25;0.25;;;;;23.76;58.03;101153.56;4888425;29;47659;-83
2023/08/23 03:25:50;;;;;;;;;0.75;0.75;;;;;23.73;58.27;101144.63;4887957;29;44820;-83
2023/08/23 03:28:16;;;;;;;;;0.25;0.25;;;;;23.76;58.30;101140.00;4905319;29;45519;-84
2023/08/23 03:30:42;;;;;;;;;0.50;0.50;;;;;23.71;58.32;101147.44;4904500;29;45403;-81
2023/08/23 03:33:13;;;;;;;;;0.00;0.00;;;;;23.81;58.42;101141.69;4904118;29;45243;-83
2023/08/23 03:35:39;;;;;;;;;0.00;0.00;;;;;23.59;59.14;101147.81;4905155;29;44860;-85
2023/08/23 03:38:04;;;;;;;;;1.50;1.00;;;;;23.58;58.76;101145.19;4907419;29;44940;-83
2023/08/23 03:40:39;;;;;;;;;0.50;0.50;;;;;23.66;58.82;101143.09;4872717;29;44846;-84
2023/08/23 03:49:48;;;;;;;;;0.00;0.00;;;;;23.47;59.65;101134.66;4905618;29;44771;-83
2023/08/23 03:52:14;;;;;;;;;0.00;0.00;;;;;23.46;59.46;101138.31;4905336;29;44776;-82
2023/08/23 03:54:43;;;;;;;;;0.00;0.00;;;;;23.45;59.46;101139.25;4903419;29;47762;-83
2023/08/23 03:57:08;;;;;;;;;1.00;1.00;;;;;23.35;59.82;101138.69;4904090;28;44764;-82
2023/08/23 03:59:35;;;;;;;;;0.00;0.00;;;;;23.43;59.83;101155.63;4891305;29;45432;-83
2023/08/23 04:02:00;;;;;;;;;2.00;1.00;;;;;23.31;59.92;101150.59;4906526;28;45455;-83
2023/08/23 04:04:26;;;;;;;;;2.00;0.00;;;;;23.29;60.23;101147.91;4906499;29;45381;-85
2023/08/23 04:06:51;;;;;;;;;0.00;0.00;;;;;23.25;59.95;101154.38;4888099;29;45396;-83
2023/08/23 04:09:17;;;;;;;;;0.00;0.00;;;;;23.29;60.14;101156.06;4903708;29;44940;-82
2023/08/23 04:12:32;;;;;;;;;1.25;1.25;;;;;23.39;60.21;101153.03;4904222;29;44760;-84
2023/08/23 04:15:00;;;;;;;;;1.00;1.00;;;;;23.25;60.30;101165.25;4904232;29;45331;-83
2023/08/23 04:17:26;;;;;;;;;3.00;1.33;;;;;23.25;60.71;101159.81;4903032;29;45299;-84
2023/08/23 04:19:51;;;;;;;;;0.00;0.00;;;;;23.23;60.70;101156.25;4905771;29;45368;-83
2023/08/23 04:22:17;;;;;;;;;1.00;1.00;;;;;23.24;61.00;101157.13;4904126;29;45284;-82
2023/08/23 04:25:32;;;;;;;;;1.00;1.00;;;;;23.33;60.54;101149.59;4903267;29;45484;-82
2023/08/23 04:27:58;;;;;;;;;1.00;0.75;;;;;23.06;61.02;101132.34;4888581;29;45821;-82
2023/08/23 04:30:23;;;;;;;;;1.50;1.50;;;;;23.02;61.34;101129.78;4905797;29;45433;-84
2023/08/23 04:32:49;;;;;;;;;1.00;1.00;;;;;23.07;61.06;101138.69;4904399;29;44839;-84
2023/08/23 04:35:14;;;;;;;;;1.00;1.00;;;;;23.07;61.09;101133.25;4903504;29;45397;-82
2023/08/23 04:37:40;;;;;;;;;0.00;0.00;;;;;23.13;60.88;101154.78;4903608;29;45307;-83
2023/08/23 04:40:09;;;;;;;;;2.00;2.00;;;;;23.05;61.27;101133.31;4904543;29;45721;-84
2023/08/23 04:42:36;;;;;;;;;0.75;0.75;;;;;23.11;61.60;101156.66;4887445;29;45226;-83
2023/08/23 04:45:02;;;;;;;;;1.00;1.00;;;;;23.05;61.18;101146.88;4903848;28;47231;-82
2023/08/23 04:47:28;;;;;;;;;1.00;1.00;;;;;23.04;61.81;101139.66;4903711;29;45314;-82
2023/08/23 04:49:54;;;;;;;;;1.50;1.50;;;;;23.11;61.65;101156.66;4905597;29;45495;-83
2023/08/23 04:52:20;;;;;;;;;1.00;1.00;;;;;23.07;61.55;101163.09;4887785;29;45451;-83
2023/08/23 04:54:45;;;;;;;;;0.25;0.25;;;;;23.09;61.69;101163.94;4904988;29;45496;-83
2023/08/23 04:57:14;;;;;;;;;0.75;0.25;;;;;23.17;61.92;101157.34;4907741;29;44784;-83
2023/08/23 04:59:39;;;;;;;;;0.00;0.00;;;;;23.05;61.93;101157.72;4907016;29;45641;-82
2023/08/23 05:02:04;;;;;;;;;0.00;0.00;;;;;23.08;61.58;101152.19;4906884;29;44837;-83
2023/08/23 05:04:30;;;;;;;;;1.00;1.00;;;;;23.03;61.87;101154.16;4907413;29;45090;-84
2023/08/23 05:06:55;;;;;;;;;0.00;0.00;;;;;23.00;61.89;101142.47;4906337;29;44837;-83
2023/08/23 05:09:24;;;;;;;;;1.00;1.00;;;;;23.03;62.11;101153.28;4907944;29;45379;-82
2023/08/23 05:11:49;;;;;;;;;1.00;1.00;;;;;23.03;62.48;101148.75;4890050;29;45358;-83
2023/08/23 05:14:14;;;;;;;;;0.25;0.25;;;;;23.13;61.96;101168.34;4907485;29;45146;-84
2023/08/23 05:16:40;;;;;;;;;1.25;1.25;;;;;23.13;61.93;101162.91;4909490;29;44828;-83
2023/08/23 05:19:05;;;;;;;;;1.75;1.75;;;;;23.13;62.29;101154.78;4892372;29;44993;-83
2023/08/23 05:21:31;;;;;;;;;1.00;1.00;;;;;23.13;62.13;101144.81;4909028;29;44819;-83
2023/08/23 05:23:56;;;;;;;;;1.00;1.00;;;;;23.15;62.55;101148.34;4907770;29;45099;-83
2023/08/23 05:26:22;;;;;;;;;3.00;2.00;;;;;23.14;62.25;101151.09;4907816;29;44799;-83
2023/08/23 05:28:47;;;;;;;;;1.00;1.00;;;;;23.21;62.01;101154.50;4907751;29;44955;-82
2023/08/23 05:31:15;;;;;;;;;0.25;0.25;;;;;23.21;62.17;101158.13;4908547;29;45785;-84
2023/08/23 05:33:42;;;;;;;;;1.00;1.00;;;;;23.17;62.35;101156.44;4908363;28;45089;-84
2023/08/23 05:36:07;;;;;;;;;1.00;1.00;;;;;23.11;63.04;101167.50;4907829;29;45162;-83
2023/08/23 05:38:33;;;;;;;;;0.33;0.33;;;;;23.07;63.60;101168.53;4890048;29;45589;-83
2023/08/23 05:40:58;;;;;;;;;1.75;1.75;;;;;23.01;62.46;101163.25;4908752;29;45500;-83
2023/08/23 05:43:24;;;;;;;;;3.00;1.00;;;;;22.99;63.01;101167.84;4890753;29;47889;-83
2023/08/23 05:45:51;;;;;;;;;1.25;1.25;;;;;23.05;63.34;101174.00;4906029;29;45079;-83
2023/08/23 05:48:17;;;;;;;;;2.00;2.00;;;;;23.01;63.23;101155.13;4906947;29;44930;-85
2023/08/23 05:50:48;;;;;;;;;1.50;1.00;;;;;23.24;63.62;101163.44;4896787;28;45331;-89
2023/08/23 05:53:20;;;;;;;;;3.00;1.50;;;;;23.30;63.36;101165.97;4898009;29;45142;-88
2023/08/23 05:55:50;;;;;;;;;0.75;0.75;;;;;23.22;62.62;101148.16;4895778;29;45755;-88
2023/08/23 05:58:17;;;;;;;;;1.75;1.75;;;;;23.08;62.76;101118.75;4912598;29;44926;-89
2023/08/23 06:00:43;;;;;;;;;1.75;1.00;;;;;23.18;62.50;101136.50;4912469;28;45463;-88
2023/08/23 06:03:09;;;;;;;;;1.00;1.00;;;;;23.07;62.58;101107.00;4911822;28;47073;-86
2023/08/23 06:05:35;;;;;;;;;2.75;1.50;;;;;23.13;62.61;101123.09;4894535;29;44828;-87
2023/08/23 06:08:07;;;;;;;;;1.00;1.00;;;;;23.31;62.30;101143.31;4899458;28;44846;-87
2023/08/23 06:10:32;;;;;;;;;1.00;1.00;;;;;23.29;62.47;101142.50;4911292;28;44809;-86
2023/08/23 06:12:58;;;;;;;;;1.00;1.00;;;;;23.39;62.03;101150.31;4894546;29;46714;-86
2023/08/23 06:19:11;;;;;;;;;1.50;1.25;;;;;23.42;61.58;101129.38;4913623;29;44928;-82
2023/08/23 06:21:36;;;;;;;;;1.50;1.50;;;;;23.42;62.43;101140.25;4898437;29;44935;-82
2023/08/23 06:24:27;;;;;;;;;1.67;1.67;;;;;23.62;62.24;101157.72;4893564;29;46750;-82
2023/08/23 06:27:44;;;;;;;;;1.25;1.25;;;;;23.57;61.73;101136.13;4906954;29;44961;-83
2023/08/23 06:30:32;;;;;;;;;1.00;1.00;;;;;23.68;61.49;101150.25;4908790;29;44764;-83
2023/08/23 06:32:58;;;;;;;;;3.00;2.00;;;;;23.49;61.93;101114.69;4910400;28;45058;-82
2023/08/23 06:35:24;;;;;;;;;1.50;1.50;;;;;23.74;61.54;101160.88;4913359;29;45513;-83
2023/08/23 06:41:08;;;;;;;;;2.00;2.00;;;;;23.49;62.10;101120.13;4873467;29;44805;-83
2023/08/23 06:43:34;;;;;;;;;3.25;3.00;;;;;23.58;61.93;101121.63;4871418;29;45309;-82
2023/08/23 06:46:38;;;;;;;;;1.75;1.75;;;;;24.05;61.32;101153.53;4854026;29;47435;-82
2023/08/23 06:49:16;;;;;;;;;1.50;1.50;;;;;23.91;61.21;101107.84;4855176;29;45362;-81
2023/08/23 06:51:44;;;;;;;;;2.75;2.25;;;;;24.05;60.94;101119.09;4870204;29;44861;-81
2023/08/23 06:54:21;;;;;;;;;3.50;3.00;;;;;24.10;60.92;101119.84;4858928;29;45168;-81
2023/08/23 06:56:49;;;;;;;;;2.00;2.00;;;;;24.23;60.13;101130.25;4876939;29;46258;-81
2023/08/23 06:59:19;;;;;;;;;4.25;2.00;;;;;24.41;60.41;101175.78;4875055;29;45380;-83
2023/08/23 07:05:32;;;;;;;;;2.00;2.00;;;;;24.44;60.18;101183.84;4875641;29;44975;-81
2023/08/23 07:08:03;;;;;;;;;8.00;7.00;;;;;24.27;60.20;101148.22;4851638;29;46817;-82
2023/08/23 07:10:35;;;;;;;;;4.00;3.00;;;;;24.44;59.90;101170.25;4860180;29;45499;-81
2023/08/23 07:13:12;;;;;;;;;3.00;2.25;;;;;24.48;59.42;101158.31;4871894;29;44742;-81
2023/08/23 07:16:19;;;;;;;;;3.75;2.00;;;;;24.67;59.78;101174.84;4859426;29;45266;-83
2023/08/23 07:22:27;;;;;;;;;6.00;3.00;;;;;24.63;59.80;101156.00;4832769;29;45201;-82
2023/08/23 07:30:59;;;;;;;;;2.75;2.75;;;;;25.07;58.88;101164.28;4832568;29;46393;-84
2023/08/23 07:33:32;;;;;;;;;4.25;3.50;;;;;25.06;59.05;101154.31;4827303;29;44950;-84
2023/08/23 07:36:10;;;;;;;;;3.67;3.00;;;;;25.10;58.60;101131.47;4842372;29;44913;-84
2023/08/23 07:38:39;;;;;;;;;2.00;2.00;;;;;25.32;58.63;101184.13;4815249;29;45336;-83
2023/08/23 07:41:13;;;;;;;;;3.00;3.00;;;;;25.14;58.03;101130.41;4849279;29;47246;-84
2023/08/23 07:44:10;;;;;;;;;2.00;2.00;;;;;25.20;58.15;101143.75;4849485;29;45410;-83
2023/08/23 07:47:33;;;;;;;;;4.00;3.00;;;;;25.49;57.91;101171.66;4832523;29;44925;-85
2023/08/23 07:50:03;;;;;;;;;3.00;3.00;;;;;25.29;57.54;101159.75;4834572;29;44965;-83
2023/08/23 07:52:39;;;;;;;;;3.00;3.00;;;;;25.34;58.04;101149.56;4835070;29;47155;-84
2023/08/23 08:01:14;;;;;;;;;3.75;3.00;;;;;25.61;58.17;101182.06;4899981;29;44789;-87
2023/08/23 08:03:43;;;;;;;;;2.67;2.67;;;;;25.47;57.77;101147.25;4909659;28;46790;-86
2023/08/23 08:06:27;;;;;;;;;5.00;3.67;;;;;25.44;57.53;101143.75;4891750;28;44985;-85
2023/08/23 08:08:52;;;;;;;;;4.67;2.67;;;;;25.56;57.90;101165.03;4914471;28;45062;-87
2023/08/23 08:11:26;;;;;;;;;4.00;2.00;;;;;25.95;57.88;101175.19;4913724;28;45319;-87
2023/08/23 08:13:52;;;;;;;;;4.67;3.67;;;;;25.93;57.24;101161.66;4914239;28;45428;-84
2023/08/23 08:32:52;;;;;;;;;4.00;4.00;;;;;26.79;55.84;101170.56;4804035;29;45384;-85
2023/08/23 08:35:20;;;;;;;;;6.00;5.00;;;;;26.84;55.74;101182.13;4907232;29;44866;-85
2023/08/23 08:38:09;;;;;;;;;4.67;4.67;;;;;26.77;55.39;101141.56;4901909;28;45399;-87
2023/08/23 08:43:50;;;;;;;;;2.67;2.33;;;;;26.92;54.43;101152.66;4918919;23;45089;-85
2023/08/23 08:46:21;;;;;;;;;5.00;4.67;;;;;27.04;53.98;101177.56;4901724;28;44979;-86
2023/08/23 09:06:53;;;;;;;;;4.00;4.00;;;;;27.40;54.15;101199.53;5746360;23;46445;-85
2023/08/23 09:42:05;;;;;;;;;6.33;6.00;;;;;28.26;52.68;101177.91;4938600;23;46725;-86
2023/08/23 09:44:46;;;;;;;;;6.00;6.00;;;;;28.33;52.65;101191.13;4866609;29;46090;-86
2023/08/23 09:49:51;;;;;;;;;6.33;6.33;;;;;28.29;52.08;101162.19;5137469;23;45266;-86
2023/08/23 10:10:28;;;;;;;;;4.00;4.00;;;;;29.04;51.10;101159.06;4978401;23;45044;-85
2023/08/23 10:13:04;;;;;;;;;6.00;6.00;;;;;29.11;51.04;101158.66;4916166;29;44804;-86
2023/08/23 10:16:08;;;;;;;;;6.75;4.75;;;;;29.22;51.00;101166.25;4919702;28;45244;-86
2023/08/23 10:35:38;;;;;;;;;11.00;7.00;;;;;29.65;49.50;101152.78;5699126;23;46899;-86
2023/08/23 10:38:06;;;;;;;;;4.00;4.00;;;;;29.64;50.18;101152.88;4915144;29;45664;-85
2023/08/23 10:40:52;;;;;;;;;6.33;5.67;;;;;29.74;49.66;101142.28;4898588;29;44744;-85
2023/08/23 10:43:33;;;;;;;;;4.00;4.00;;;;;29.64;49.60;101142.78;4910146;29;45289;-85
2023/08/23 10:49:27;;;;;;;;;5.67;5.67;;;;;30.01;48.87;101140.59;4914234;29;44956;-85
2023/08/23 10:52:03;;;;;;;;;4.00;4.00;;;;;29.88;48.67;101098.47;4910846;29;44776;-85
2023/08/23 10:54:30;;;;;;;;;5.00;5.00;;;;;30.03;48.73;101122.19;4896325;29;44868;-85
2023/08/23 10:56:56;;;;;;;;;5.00;5.00;;;;;30.07;48.70;101134.72;4908752;29;44880;-85
2023/08/23 10:59:21;;;;;;;;;7.00;4.67;;;;;29.88;48.81;101096.59;4911649;29;45316;-84
2023/08/23 11:01:47;;;;;;;;;10.67;9.33;;;;;30.03;48.93;101113.06;4900983;29;45307;-84
2023/08/23 11:04:17;;;;;;;;;3.00;3.00;;;;;30.18;48.62;101111.22;4895493;29;44923;-85
2023/08/23 11:06:56;;;;;;;;;7.00;6.33;;;;;30.51;47.96;101132.97;4912439;28;44911;-84
2023/08/23 11:09:22;;;;;;;;;4.67;4.67;;;;;30.53;47.27;101100.81;4905631;29;47289;-86
2023/08/23 11:19:11;;;;;;;;;8.00;6.33;;;;;30.91;46.57;101091.97;4803063;29;44892;-83
2023/08/23 11:22:17;;;;;;;;;7.33;7.00;;;;;30.99;47.10;101108.84;4801577;29;45384;-84
2023/08/23 11:25:07;;;;;;;;;9.00;8.00;;;;;30.96;46.67;101076.06;4838029;29;44878;-85
2023/08/23 11:28:17;;;;;;;;;;;;;;;;;;;;;
2023/08/23 11:37:34;;;;;;;;;8.00;6.67;;;;;30.87;46.70;101061.06;4767796;29;44793;-86
2023/08/23 11:40:10;;;;;;;;;8.33;7.00;;;;;30.98;45.81;101057.63;4763040;29;44823;-82
2023/08/23 11:42:42;;;;;;;;;7.00;7.00;;;;;30.90;46.25;101049.00;4760886;29;44822;-81
2023/08/23 11:45:11;;;;;;;;;5.33;5.33;;;;;30.68;46.39;101027.53;4761578;29;45051;-82
2023/08/23 11:59:17;;;;;;;;;8.00;8.00;;;;;31.36;45.67;101054.16;4657419;27;44940;-84
2023/08/23 12:17:15;;;;;;;;;7.67;6.67;;;;;31.58;45.61;101028.84;5758738;23;46953;-82
2023/08/23 12:19:48;;;;;;;;;7.00;7.00;;;;;31.62;45.56;101002.91;4901792;28;45044;-84
2023/08/23 12:27:43;;;;;;;;;9.00;9.00;;;;;31.99;45.22;101016.78;3927949;23;45220;-84
2023/08/23 12:32:45;;;;;;;;;6.00;6.00;;;;;32.12;44.23;101049.84;5418602;23;45638;-82
2023/08/23 12:35:11;;;;;;;;;9.33;8.00;;;;;31.86;44.69;100993.91;4915796;29;44855;-83
2023/08/23 12:37:39;;;;;;;;;8.67;7.00;;;;;32.01;44.37;101033.22;4917779;29;45180;-83
2023/08/23 12:46:15;;;;;;;;;9.00;7.33;;;;;31.86;44.54;100999.41;5244519;23;46415;-85
2023/08/23 12:50:57;;;;;;;;;10.67;10.00;;;;;31.77;45.00;101013.78;5533794;23;46041;-84
2023/08/23 13:15:07;;;;;;;;;9.67;9.33;;;;;32.58;44.31;100969.41;5794482;23;46115;-84
2023/08/23 13:23:36;;;;;;;;;8.67;8.67;;;;;32.66;44.46;100994.50;5461071;23;46259;-84
2023/08/23 13:50:18;;;;;;;;;;;;;;;;;;;;;
2023/08/23 13:53:21;;;;;;;;;;;;;;;;;;;;;
2023/08/23 14:02:23;;;;;;;;;7.67;7.67;;;;;33.65;43.83;100973.19;4914157;29;45014;-83
2023/08/23 14:08:43;;;;;;;;;;;;;;;;;;;;;
2023/08/23 14:11:14;;;;;;;;;10.00;10.00;;;;;37.14;40.30;100925.41;4856997;29;68030;-84
2023/08/23 14:50:57;;;;;;;;;5.67;5.67;;;;;45.97;27.86;100913.69;5003710;23;45015;-81
2023/08/23 15:07:39;;;;;;;;;8.00;7.00;;;;;41.51;30.13;100908.41;5865495;23;46924;-82
2023/08/23 15:12:45;;;;;;;;;6.00;6.00;;;;;41.20;30.20;100910.19;5375518;23;45609;-83
2023/08/23 15:20:39;;;;;;;;;7.33;7.33;;;;;38.76;32.60;100891.78;5483029;23;47043;-84
2023/08/23 15:23:10;;;;;;;;;7.00;7.00;;;;;38.03;32.94;100895.38;4882697;29;44827;-82
2023/08/23 15:25:45;;;;;;;;;7.33;7.33;;;;;37.48;33.48;100895.28;4856423;29;44953;-82
2023/08/23 15:34:39;;;;;;;;;7.00;7.00;;;;;36.67;35.64;100900.28;5648281;23;46357;31
2023/08/23 15:37:17;;;;;;;;;9.67;9.00;;;;;36.38;35.50;100901.94;4890780;29;44852;-82
2023/08/23 15:44:59;;;;;;;;;7.33;7.33;;;;;36.09;36.05;100874.13;5161963;23;46985;-82
2023/08/23 16:00:22;;;;;;;;;6.67;6.67;;;;;35.45;36.80;100901.06;4979595;23;46475;-82
2023/08/23 16:02:47;;;;;;;;;9.00;8.67;;;;;35.19;36.96;100892.28;5498023;23;47765;-82
2023/08/23 16:05:13;;;;;;;;;7.00;5.67;;;;;34.91;37.07;100893.78;5795107;23;46574;-83
2023/08/23 16:20:48;;;;;;;;;3.00;3.00;;;;;34.55;38.08;100875.69;4420587;23;46812;-83
2023/08/23 20:23:33;;;;;;;;;8.00;8.00;;;;;30.34;48.09;100795.63;5497321;23;46511;-82
2023/08/23 20:25:59;;;;;;;;;9.67;9.67;;;;;30.21;48.86;100803.78;4884034;29;45595;-83
2023/08/23 20:28:28;;;;;;;;;13.67;12.67;;;;;30.15;48.95;100791.34;4885544;29;45552;-82
2023/08/23 20:30:57;;;;;;;;;11.00;11.00;;;;;30.16;49.42;100808.69;4886685;29;44705;-81
2023/08/23 20:33:22;;;;;;;;;8.00;8.00;;;;;30.14;49.44;100818.88;4884743;29;44776;-81
2023/08/23 20:35:49;;;;;;;;;11.67;10.67;;;;;30.10;49.36;100812.75;4868497;29;45312;-82
2023/08/23 20:38:15;;;;;;;;;8.00;8.00;;;;;30.14;49.70;100818.88;4869050;29;47323;-82
2023/08/23 20:40:41;;;;;;;;;10.33;9.67;;;;;30.03;49.60;100812.25;4887034;29;44967;-83
2023/08/23 20:43:06;;;;;;;;;8.67;8.67;;;;;30.02;50.31;100805.03;4886390;29;45424;-83
2023/08/23 20:45:32;;;;;;;;;11.33;9.33;;;;;29.98;50.64;100819.91;4885743;29;45624;-83
2023/08/23 20:47:57;;;;;;;;;10.67;10.67;;;;;29.98;51.11;100827.28;4887303;29;47230;-83
2023/08/23 20:50:23;;;;;;;;;10.67;10.33;;;;;29.95;51.07;100828.34;4870438;29;44991;-81
2023/08/23 20:52:49;;;;;;;;;10.67;10.67;;;;;29.89;50.74;100831.47;4871594;29;44832;-82
2023/08/23 20:55:15;;;;;;;;;11.33;11.00;;;;;29.87;52.27;100827.97;4886514;29;44816;-81
2023/08/23 20:57:41;;;;;;;;;10.67;10.67;;;;;29.86;52.99;100842.66;4886709;29;46211;-82
2023/08/23 21:00:07;;;;;;;;;13.00;13.00;;;;;29.81;53.94;100831.09;4887515;29;44734;-83
2023/08/23 21:02:33;;;;;;;;;10.67;10.67;;;;;29.80;54.46;100843.06;4884458;29;45440;-83
2023/08/23 21:04:58;;;;;;;;;12.67;11.67;;;;;29.70;54.22;100829.03;4869013;29;45334;-82
2023/08/23 21:07:28;;;;;;;;;11.00;11.00;;;;;29.66;54.47;100819.25;4887778;29;45566;-82
2023/08/23 21:10:31;;;;;;;;;10.67;10.67;;;;;29.65;54.42;100821.13;4869985;29;45393;-81
2023/08/23 21:12:57;;;;;;;;;13.00;11.00;;;;;29.46;55.05;100821.41;4886757;29;44872;-82
2023/08/23 21:15:22;;;;;;;;;11.00;11.00;;;;;29.37;55.12;100807.41;4887257;29;45863;-82
2023/08/23 21:17:48;;;;;;;;;13.00;13.00;;;;;29.30;54.99;100809.66;4886782;29;47145;-83
2023/08/23 21:20:13;;;;;;;;;9.67;9.67;;;;;29.30;54.37;100837.94;4885697;29;45421;-83
2023/08/23 21:22:40;;;;;;;;;14.33;12.33;;;;;29.26;54.74;100841.84;4869185;29;44840;-82
2023/08/23 21:25:06;;;;;;;;;14.00;13.00;;;;;29.26;54.12;100839.09;4885254;29;45352;-82
2023/08/23 21:27:32;;;;;;;;;13.00;12.00;;;;;29.23;54.55;100842.06;4883254;29;47241;-82
2023/08/23 21:29:58;;;;;;;;;9.67;9.67;;;;;29.22;54.07;100848.50;4884780;29;44726;-82
2023/08/23 21:32:26;;;;;;;;;11.00;10.00;;;;;29.27;53.18;100843.63;4884795;29;45078;-83
2023/08/23 21:34:52;;;;;;;;;12.00;8.67;;;;;29.21;53.42;100830.31;4885173;29;44829;-83
2023/08/23 21:37:18;;;;;;;;;12.00;12.00;;;;;29.21;54.74;100824.84;4883611;29;47722;-81
2023/08/23 21:39:43;;;;;;;;;10.00;10.00;;;;;29.18;55.78;100822.28;4871619;29;45139;-82
2023/08/23 21:42:09;;;;;;;;;12.00;11.67;;;;;29.05;55.21;100802.97;4889021;29;45004;-83
2023/08/23 21:44:35;;;;;;;;;12.00;12.00;;;;;29.08;54.81;100816.44;4887757;29;44778;-82
2023/08/23 21:47:00;;;;;;;;;11.00;11.00;;;;;29.04;54.92;100812.13;4885820;29;47131;-82
2023/08/23 21:49:26;;;;;;;;;11.33;10.00;;;;;29.01;54.77;100816.94;4888043;29;45157;-82